sensor_id;sensor_type;location;lat;lon;timestamp;temperature;humidity
25450;DHT22;13371;52.080;5.624;2024-02-23T00:01:33;6.60;99.90
25450;DHT22;13371;52.080;5.624;2024-02-23T00:03:59;6.50;99.90
25450;DHT22;13371;52.080;5.624;2024-02-23T00:06:25;6.80;99.90
25450;DHT22;13371;52.080;5.624;2024-02-23T00:08:53;6.80;99.90
25450;DHT22;13371;52.080;5.624;2024-02-23T00:11:20;6.90;99.90
25450;DHT22;13371;52.080;5.624;2024-02-23T00:13:46;6.90;99.90
25450;DHT22;13371;52.080;5.624;2024-02-23T00:16:12;7.00;99.90
25450;DHT22;13371;52.080;5.624;2024-02-23T00:18:38;7.00;99.90
25450;DHT22;13371;52.080;5.624;2024-02-23T00:21:07;7.00;99.90
25450;DHT22;13371;52.080;5.624;2024-02-23T00:23:32;7.10;99.90
25450;DHT22;13371;52.080;5.624;2024-02-23T00:25:58;7.20;99.90
25450;DHT22;13371;52.080;5.624;2024-02-23T00:28:26;7.00;99.90
25450;DHT22;13371;52.080;5.624;2024-02-23T00:30:52;7.00;99.90
25450;DHT22;13371;52.080;5.624;2024-02-23T00:33:18;7.10;99.90
25450;DHT22;13371;52.080;5.624;2024-02-23T00:35:44;7.30;99.90
25450;DHT22;13371;52.080;5.624;2024-02-23T00:38:09;7.40;99.90
25450;DHT22;13371;52.080;5.624;2024-02-23T00:40:35;7.20;99.90
25450;DHT22;13371;52.080;5.624;2024-02-23T00:43:06;7.10;99.90
25450;DHT22;13371;52.080;5.624;2024-02-23T00:45:31;7.20;99.90
25450;DHT22;13371;52.080;5.624;2024-02-23T00:47:57;7.30;99.90
25450;DHT22;13371;52.080;5.624;2024-02-23T00:50:23;7.50;99.90
25450;DHT22;13371;52.080;5.624;2024-02-23T00:52:52;7.20;99.90
25450;DHT22;13371;52.080;5.624;2024-02-23T00:55:18;7.10;99.90
25450;DHT22;13371;52.080;5.624;2024-02-23T00:57:47;6.90;99.90
25450;DHT22;13371;52.080;5.624;2024-02-23T01:00:15;7.00;99.90
25450;DHT22;13371;52.080;5.624;2024-02-23T01:02:41;6.90;99.90
25450;DHT22;13371;52.080;5.624;2024-02-23T01:05:14;6.60;99.90
25450;DHT22;13371;52.080;5.624;2024-02-23T01:07:48;6.60;99.90
25450;DHT22;13371;52.080;5.624;2024-02-23T01:10:14;6.50;99.90
25450;DHT22;13371;52.080;5.624;2024-02-23T01:12:39;6.50;99.90
25450;DHT22;13371;52.080;5.624;2024-02-23T01:15:05;6.30;99.90
25450;DHT22;13371;52.080;5.624;2024-02-23T01:17:37;6.20;99.90
25450;DHT22;13371;52.080;5.624;2024-02-23T01:20:06;6.30;99.90
25450;DHT22;13371;52.080;5.624;2024-02-23T01:22:32;6.40;99.90
25450;DHT22;13371;52.080;5.624;2024-02-23T01:25:07;6.60;99.90
25450;DHT22;13371;52.080;5.624;2024-02-23T01:27:35;7.00;99.90
25450;DHT22;13371;52.080;5.624;2024-02-23T01:30:04;7.20;99.90
25450;DHT22;13371;52.080;5.624;2024-02-23T01:32:30;7.10;99.90
25450;DHT22;13371;52.080;5.624;2024-02-23T01:34:55;7.10;99.90
25450;DHT22;13371;52.080;5.624;2024-02-23T01:37:21;7.20;99.90
25450;DHT22;13371;52.080;5.624;2024-02-23T01:39:46;7.00;99.90
25450;DHT22;13371;52.080;5.624;2024-02-23T01:42:12;6.90;99.90
25450;DHT22;13371;52.080;5.624;2024-02-23T01:44:38;7.00;99.90
25450;DHT22;13371;52.080;5.624;2024-02-23T01:47:04;7.00;99.90
25450;DHT22;13371;52.080;5.624;2024-02-23T01:49:29;6.90;99.90
25450;DHT22;13371;52.080;5.624;2024-02-23T01:52:03;6.80;99.90
25450;DHT22;13371;52.080;5.624;2024-02-23T01:54:30;6.80;99.90
25450;DHT22;13371;52.080;5.624;2024-02-23T01:56:57;6.80;99.90
25450;DHT22;13371;52.080;5.624;2024-02-23T01:59:23;6.70;99.90
25450;DHT22;13371;52.080;5.624;2024-02-23T02:01:50;6.80;99.90
25450;DHT22;13371;52.080;5.624;2024-02-23T02:04:16;6.40;99.90
25450;DHT22;13371;52.080;5.624;2024-02-23T02:06:42;6.40;99.90
25450;DHT22;13371;52.080;5.624;2024-02-23T02:09:08;6.50;99.90
25450;DHT22;13371;52.080;5.624;2024-02-23T02:11:33;6.60;99.90
25450;DHT22;13371;52.080;5.624;2024-02-23T02:13:59;6.60;99.90
25450;DHT22;13371;52.080;5.624;2024-02-23T02:16:25;6.50;99.90
25450;DHT22;13371;52.080;5.624;2024-02-23T02:18:50;6.40;99.90
25450;DHT22;13371;52.080;5.624;2024-02-23T02:21:16;6.40;99.90
25450;DHT22;13371;52.080;5.624;2024-02-23T02:23:42;6.30;99.90
25450;DHT22;13371;52.080;5.624;2024-02-23T02:26:07;6.30;99.90
25450;DHT22;13371;52.080;5.624;2024-02-23T02:28:33;6.60;99.90
25450;DHT22;13371;52.080;5.624;2024-02-23T02:30:59;6.50;99.90
25450;DHT22;13371;52.080;5.624;2024-02-23T02:33:25;6.30;99.90
25450;DHT22;13371;52.080;5.624;2024-02-23T02:35:50;6.30;99.90
25450;DHT22;13371;52.080;5.624;2024-02-23T02:38:16;6.30;99.90
25450;DHT22;13371;52.080;5.624;2024-02-23T02:40:42;6.40;99.90
25450;DHT22;13371;52.080;5.624;2024-02-23T02:43:07;6.40;99.90
25450;DHT22;13371;52.080;5.624;2024-02-23T02:45:33;6.40;99.90
25450;DHT22;13371;52.080;5.624;2024-02-23T02:48:03;6.40;99.90
25450;DHT22;13371;52.080;5.624;2024-02-23T02:50:28;6.40;99.90
25450;DHT22;13371;52.080;5.624;2024-02-23T02:52:54;6.30;99.90
25450;DHT22;13371;52.080;5.624;2024-02-23T02:55:20;6.30;99.90
25450;DHT22;13371;52.080;5.624;2024-02-23T02:57:46;6.30;99.90
25450;DHT22;13371;52.080;5.624;2024-02-23T03:00:12;6.40;99.90
25450;DHT22;13371;52.080;5.624;2024-02-23T03:02:37;6.20;99.90
25450;DHT22;13371;52.080;5.624;2024-02-23T03:05:03;6.40;99.90
25450;DHT22;13371;52.080;5.624;2024-02-23T03:07:29;6.50;99.90
25450;DHT22;13371;52.080;5.624;2024-02-23T03:09:54;6.50;99.90
25450;DHT22;13371;52.080;5.624;2024-02-23T03:12:20;6.20;99.90
25450;DHT22;13371;52.080;5.624;2024-02-23T03:14:46;6.20;99.90
25450;DHT22;13371;52.080;5.624;2024-02-23T03:17:11;6.20;99.90
25450;DHT22;13371;52.080;5.624;2024-02-23T03:19:37;6.30;99.90
25450;DHT22;13371;52.080;5.624;2024-02-23T03:22:03;6.30;99.90
25450;DHT22;13371;52.080;5.624;2024-02-23T03:24:29;6.20;99.90
25450;DHT22;13371;52.080;5.624;2024-02-23T03:26:55;6.20;99.90
25450;DHT22;13371;52.080;5.624;2024-02-23T03:29:21;6.20;99.90
25450;DHT22;13371;52.080;5.624;2024-02-23T03:31:52;6.20;99.90
25450;DHT22;13371;52.080;5.624;2024-02-23T03:34:17;6.10;99.90
25450;DHT22;13371;52.080;5.624;2024-02-23T03:36:43;5.90;99.90
25450;DHT22;13371;52.080;5.624;2024-02-23T03:39:09;6.10;99.90
25450;DHT22;13371;52.080;5.624;2024-02-23T03:41:34;6.10;99.90
25450;DHT22;13371;52.080;5.624;2024-02-23T03:44:00;6.00;99.90
25450;DHT22;13371;52.080;5.624;2024-02-23T03:46:25;6.20;99.90
25450;DHT22;13371;52.080;5.624;2024-02-23T03:48:51;6.20;99.90
25450;DHT22;13371;52.080;5.624;2024-02-23T03:51:17;6.00;99.90
25450;DHT22;13371;52.080;5.624;2024-02-23T03:53:43;6.10;99.90
25450;DHT22;13371;52.080;5.624;2024-02-23T03:56:09;6.20;99.90
25450;DHT22;13371;52.080;5.624;2024-02-23T03:58:36;6.20;99.90
25450;DHT22;13371;52.080;5.624;2024-02-23T04:01:02;6.40;99.90
25450;DHT22;13371;52.080;5.624;2024-02-23T04:03:27;6.30;99.90
25450;DHT22;13371;52.080;5.624;2024-02-23T04:05:53;6.20;99.90
25450;DHT22;13371;52.080;5.624;2024-02-23T04:08:18;6.00;99.90
25450;DHT22;13371;52.080;5.624;2024-02-23T04:10:44;6.00;99.90
25450;DHT22;13371;52.080;5.624;2024-02-23T04:13:09;6.10;99.90
25450;DHT22;13371;52.080;5.624;2024-02-23T04:15:39;6.20;99.90
25450;DHT22;13371;52.080;5.624;2024-02-23T04:18:05;6.30;99.90
25450;DHT22;13371;52.080;5.624;2024-02-23T04:20:30;6.20;99.90
25450;DHT22;13371;52.080;5.624;2024-02-23T04:22:56;6.40;99.90
25450;DHT22;13371;52.080;5.624;2024-02-23T04:25:21;6.40;99.90
25450;DHT22;13371;52.080;5.624;2024-02-23T04:27:47;6.30;99.90
25450;DHT22;13371;52.080;5.624;2024-02-23T04:30:13;6.30;99.90
25450;DHT22;13371;52.080;5.624;2024-02-23T04:32:39;6.30;99.90
25450;DHT22;13371;52.080;5.624;2024-02-23T04:35:05;6.10;99.90
25450;DHT22;13371;52.080;5.624;2024-02-23T04:37:31;6.20;99.90
25450;DHT22;13371;52.080;5.624;2024-02-23T04:39:56;6.20;99.90
25450;DHT22;13371;52.080;5.624;2024-02-23T04:42:22;6.00;99.90
25450;DHT22;13371;52.080;5.624;2024-02-23T04:44:47;5.90;99.90
25450;DHT22;13371;52.080;5.624;2024-02-23T04:47:14;6.00;99.90
25450;DHT22;13371;52.080;5.624;2024-02-23T04:49:40;6.30;99.90
25450;DHT22;13371;52.080;5.624;2024-02-23T04:52:07;6.20;99.90
25450;DHT22;13371;52.080;5.624;2024-02-23T04:54:34;6.20;99.90
25450;DHT22;13371;52.080;5.624;2024-02-23T04:57:00;6.30;99.90
25450;DHT22;13371;52.080;5.624;2024-02-23T04:59:26;6.40;99.90
25450;DHT22;13371;52.080;5.624;2024-02-23T05:01:51;6.50;99.90
25450;DHT22;13371;52.080;5.624;2024-02-23T05:04:17;6.60;99.90
25450;DHT22;13371;52.080;5.624;2024-02-23T05:06:42;6.60;99.90
25450;DHT22;13371;52.080;5.624;2024-02-23T05:09:09;6.40;99.90
25450;DHT22;13371;52.080;5.624;2024-02-23T05:11:35;6.40;99.90
25450;DHT22;13371;52.080;5.624;2024-02-23T05:14:00;6.30;99.90
25450;DHT22;13371;52.080;5.624;2024-02-23T05:16:26;6.30;99.90
25450;DHT22;13371;52.080;5.624;2024-02-23T05:18:52;6.30;99.90
25450;DHT22;13371;52.080;5.624;2024-02-23T05:21:17;6.60;99.90
25450;DHT22;13371;52.080;5.624;2024-02-23T05:23:43;6.50;99.90
25450;DHT22;13371;52.080;5.624;2024-02-23T05:26:14;6.60;99.90
25450;DHT22;13371;52.080;5.624;2024-02-23T05:28:40;6.60;99.90
25450;DHT22;13371;52.080;5.624;2024-02-23T05:31:05;6.50;99.90
25450;DHT22;13371;52.080;5.624;2024-02-23T05:33:31;6.50;99.90
25450;DHT22;13371;52.080;5.624;2024-02-23T05:35:57;6.50;99.90
25450;DHT22;13371;52.080;5.624;2024-02-23T05:38:22;6.50;99.90
25450;DHT22;13371;52.080;5.624;2024-02-23T05:40:48;6.60;99.90
25450;DHT22;13371;52.080;5.624;2024-02-23T05:43:14;6.70;99.90
25450;DHT22;13371;52.080;5.624;2024-02-23T05:45:39;6.70;99.90
25450;DHT22;13371;52.080;5.624;2024-02-23T05:48:05;6.80;99.90
25450;DHT22;13371;52.080;5.624;2024-02-23T05:50:32;6.80;99.90
25450;DHT22;13371;52.080;5.624;2024-02-23T05:52:57;6.80;99.90
25450;DHT22;13371;52.080;5.624;2024-02-23T05:55:23;6.70;99.90
25450;DHT22;13371;52.080;5.624;2024-02-23T05:57:49;6.70;99.90
25450;DHT22;13371;52.080;5.624;2024-02-23T06:00:16;7.00;99.90
25450;DHT22;13371;52.080;5.624;2024-02-23T06:02:44;6.80;99.90
25450;DHT22;13371;52.080;5.624;2024-02-23T06:05:11;6.90;99.90
25450;DHT22;13371;52.080;5.624;2024-02-23T06:07:37;6.90;99.90
25450;DHT22;13371;52.080;5.624;2024-02-23T06:10:02;6.90;99.90
25450;DHT22;13371;52.080;5.624;2024-02-23T06:12:28;6.80;99.90
25450;DHT22;13371;52.080;5.624;2024-02-23T06:14:54;6.80;99.90
25450;DHT22;13371;52.080;5.624;2024-02-23T06:17:20;6.80;99.90
25450;DHT22;13371;52.080;5.624;2024-02-23T06:19:46;7.00;99.90
25450;DHT22;13371;52.080;5.624;2024-02-23T06:22:11;6.80;99.90
25450;DHT22;13371;52.080;5.624;2024-02-23T06:24:37;6.80;99.90
25450;DHT22;13371;52.080;5.624;2024-02-23T06:27:03;7.00;99.90
25450;DHT22;13371;52.080;5.624;2024-02-23T06:29:29;6.90;99.90
25450;DHT22;13371;52.080;5.624;2024-02-23T06:31:55;6.80;99.90
25450;DHT22;13371;52.080;5.624;2024-02-23T06:34:21;6.70;99.90
25450;DHT22;13371;52.080;5.624;2024-02-23T06:36:47;6.70;99.90
25450;DHT22;13371;52.080;5.624;2024-02-23T06:39:12;6.80;99.90
25450;DHT22;13371;52.080;5.624;2024-02-23T06:41:38;6.70;99.90
25450;DHT22;13371;52.080;5.624;2024-02-23T06:44:06;6.90;99.90
25450;DHT22;13371;52.080;5.624;2024-02-23T06:46:32;6.80;99.90
25450;DHT22;13371;52.080;5.624;2024-02-23T06:48:57;6.70;99.90
25450;DHT22;13371;52.080;5.624;2024-02-23T06:51:23;6.80;99.90
25450;DHT22;13371;52.080;5.624;2024-02-23T06:53:49;7.10;99.90
25450;DHT22;13371;52.080;5.624;2024-02-23T06:56:14;7.00;99.90
25450;DHT22;13371;52.080;5.624;2024-02-23T06:58:40;6.80;99.90
25450;DHT22;13371;52.080;5.624;2024-02-23T07:01:06;7.00;99.90
25450;DHT22;13371;52.080;5.624;2024-02-23T07:03:33;7.00;99.90
25450;DHT22;13371;52.080;5.624;2024-02-23T07:05:58;7.10;99.90
25450;DHT22;13371;52.080;5.624;2024-02-23T07:08:24;7.10;99.90
25450;DHT22;13371;52.080;5.624;2024-02-23T07:10:50;7.00;99.90
25450;DHT22;13371;52.080;5.624;2024-02-23T07:13:16;7.20;99.90
25450;DHT22;13371;52.080;5.624;2024-02-23T07:15:43;7.10;99.90
25450;DHT22;13371;52.080;5.624;2024-02-23T07:18:08;7.10;99.90
25450;DHT22;13371;52.080;5.624;2024-02-23T07:20:36;7.10;99.90
25450;DHT22;13371;52.080;5.624;2024-02-23T07:23:01;6.90;99.90
25450;DHT22;13371;52.080;5.624;2024-02-23T07:25:27;6.90;99.90
25450;DHT22;13371;52.080;5.624;2024-02-23T07:27:52;6.90;99.90
25450;DHT22;13371;52.080;5.624;2024-02-23T07:30:18;7.10;99.90
25450;DHT22;13371;52.080;5.624;2024-02-23T07:32:44;7.20;99.90
25450;DHT22;13371;52.080;5.624;2024-02-23T07:35:10;7.20;99.90
25450;DHT22;13371;52.080;5.624;2024-02-23T07:37:37;7.10;99.90
25450;DHT22;13371;52.080;5.624;2024-02-23T07:40:03;7.20;99.90
25450;DHT22;13371;52.080;5.624;2024-02-23T07:42:29;7.10;99.90
25450;DHT22;13371;52.080;5.624;2024-02-23T07:44:55;7.00;99.90
25450;DHT22;13371;52.080;5.624;2024-02-23T07:47:21;7.10;99.90
25450;DHT22;13371;52.080;5.624;2024-02-23T07:49:47;7.00;99.90
25450;DHT22;13371;52.080;5.624;2024-02-23T07:52:12;6.90;99.90
25450;DHT22;13371;52.080;5.624;2024-02-23T07:54:38;7.30;99.90
25450;DHT22;13371;52.080;5.624;2024-02-23T07:57:04;7.20;99.90
25450;DHT22;13371;52.080;5.624;2024-02-23T07:59:32;7.30;99.90
25450;DHT22;13371;52.080;5.624;2024-02-23T08:01:58;7.30;99.90
25450;DHT22;13371;52.080;5.624;2024-02-23T08:04:24;7.40;99.90
25450;DHT22;13371;52.080;5.624;2024-02-23T08:06:49;7.40;99.90
25450;DHT22;13371;52.080;5.624;2024-02-23T08:09:16;7.50;99.90
25450;DHT22;13371;52.080;5.624;2024-02-23T08:11:43;7.50;99.90
25450;DHT22;13371;52.080;5.624;2024-02-23T08:14:08;7.40;99.90
25450;DHT22;13371;52.080;5.624;2024-02-23T08:16:34;7.60;99.90
25450;DHT22;13371;52.080;5.624;2024-02-23T08:18:59;7.60;99.90
25450;DHT22;13371;52.080;5.624;2024-02-23T08:21:25;7.30;99.90
25450;DHT22;13371;52.080;5.624;2024-02-23T08:23:51;7.50;99.90
25450;DHT22;13371;52.080;5.624;2024-02-23T08:26:17;7.40;99.90
25450;DHT22;13371;52.080;5.624;2024-02-23T08:28:43;7.40;99.90
25450;DHT22;13371;52.080;5.624;2024-02-23T08:31:08;7.30;99.90
25450;DHT22;13371;52.080;5.624;2024-02-23T08:33:34;7.50;99.90
25450;DHT22;13371;52.080;5.624;2024-02-23T08:36:00;7.50;99.90
25450;DHT22;13371;52.080;5.624;2024-02-23T08:38:25;7.40;99.90
25450;DHT22;13371;52.080;5.624;2024-02-23T08:40:51;7.50;99.90
25450;DHT22;13371;52.080;5.624;2024-02-23T08:43:16;7.60;99.90
25450;DHT22;13371;52.080;5.624;2024-02-23T08:45:42;7.60;99.90
25450;DHT22;13371;52.080;5.624;2024-02-23T08:48:08;7.50;99.90
25450;DHT22;13371;52.080;5.624;2024-02-23T08:50:34;7.40;99.90
25450;DHT22;13371;52.080;5.624;2024-02-23T08:53:02;7.60;99.90
25450;DHT22;13371;52.080;5.624;2024-02-23T08:55:27;7.60;99.90
25450;DHT22;13371;52.080;5.624;2024-02-23T08:57:54;7.50;99.90
25450;DHT22;13371;52.080;5.624;2024-02-23T09:00:19;7.70;99.90
25450;DHT22;13371;52.080;5.624;2024-02-23T09:02:45;7.50;99.90
25450;DHT22;13371;52.080;5.624;2024-02-23T09:05:10;7.60;99.90
25450;DHT22;13371;52.080;5.624;2024-02-23T09:07:36;7.60;99.90
25450;DHT22;13371;52.080;5.624;2024-02-23T09:10:02;7.60;99.90
25450;DHT22;13371;52.080;5.624;2024-02-23T09:12:30;7.80;99.90
25450;DHT22;13371;52.080;5.624;2024-02-23T09:14:55;7.80;99.90
25450;DHT22;13371;52.080;5.624;2024-02-23T09:17:21;7.70;99.90
25450;DHT22;13371;52.080;5.624;2024-02-23T09:19:47;7.80;99.90
25450;DHT22;13371;52.080;5.624;2024-02-23T09:22:12;7.80;99.90
25450;DHT22;13371;52.080;5.624;2024-02-23T09:24:41;7.80;99.90
25450;DHT22;13371;52.080;5.624;2024-02-23T09:27:09;7.70;99.90
25450;DHT22;13371;52.080;5.624;2024-02-23T09:29:35;7.70;99.90
25450;DHT22;13371;52.080;5.624;2024-02-23T09:32:01;7.70;99.90
25450;DHT22;13371;52.080;5.624;2024-02-23T09:34:27;7.70;99.90
25450;DHT22;13371;52.080;5.624;2024-02-23T09:36:52;7.60;99.90
25450;DHT22;13371;52.080;5.624;2024-02-23T09:39:18;7.50;99.90
25450;DHT22;13371;52.080;5.624;2024-02-23T09:41:45;7.60;99.90
25450;DHT22;13371;52.080;5.624;2024-02-23T09:44:12;7.90;99.90
25450;DHT22;13371;52.080;5.624;2024-02-23T09:46:38;8.10;99.90
25450;DHT22;13371;52.080;5.624;2024-02-23T09:49:05;8.00;99.90
25450;DHT22;13371;52.080;5.624;2024-02-23T09:51:33;7.70;99.90
25450;DHT22;13371;52.080;5.624;2024-02-23T09:53:59;7.90;99.90
25450;DHT22;13371;52.080;5.624;2024-02-23T09:56:27;8.00;99.90
25450;DHT22;13371;52.080;5.624;2024-02-23T09:58:56;8.00;99.90
25450;DHT22;13371;52.080;5.624;2024-02-23T10:01:27;7.90;99.90
25450;DHT22;13371;52.080;5.624;2024-02-23T10:03:57;7.70;99.90
25450;DHT22;13371;52.080;5.624;2024-02-23T10:06:24;7.80;99.90
25450;DHT22;13371;52.080;5.624;2024-02-23T10:08:50;7.80;99.90
25450;DHT22;13371;52.080;5.624;2024-02-23T10:11:18;7.70;99.90
25450;DHT22;13371;52.080;5.624;2024-02-23T10:13:44;7.80;99.90
25450;DHT22;13371;52.080;5.624;2024-02-23T10:16:09;7.80;99.90
25450;DHT22;13371;52.080;5.624;2024-02-23T10:18:38;7.80;99.90
25450;DHT22;13371;52.080;5.624;2024-02-23T10:21:04;7.80;99.90
25450;DHT22;13371;52.080;5.624;2024-02-23T10:23:30;7.80;99.90
25450;DHT22;13371;52.080;5.624;2024-02-23T10:25:56;7.90;99.90
25450;DHT22;13371;52.080;5.624;2024-02-23T10:28:22;7.80;99.90
25450;DHT22;13371;52.080;5.624;2024-02-23T10:30:48;7.80;99.90
25450;DHT22;13371;52.080;5.624;2024-02-23T10:33:14;7.80;99.90
25450;DHT22;13371;52.080;5.624;2024-02-23T10:35:41;7.80;99.90
25450;DHT22;13371;52.080;5.624;2024-02-23T10:38:08;8.00;99.90
25450;DHT22;13371;52.080;5.624;2024-02-23T10:40:39;8.00;99.90
25450;DHT22;13371;52.080;5.624;2024-02-23T10:43:12;8.20;99.90
25450;DHT22;13371;52.080;5.624;2024-02-23T10:45:39;8.30;99.90
25450;DHT22;13371;52.080;5.624;2024-02-23T10:48:09;8.40;99.90
25450;DHT22;13371;52.080;5.624;2024-02-23T10:50:36;8.40;99.90
25450;DHT22;13371;52.080;5.624;2024-02-23T10:53:04;8.50;99.90
25450;DHT22;13371;52.080;5.624;2024-02-23T10:55:32;8.20;99.90
25450;DHT22;13371;52.080;5.624;2024-02-23T10:57:59;8.10;99.90
25450;DHT22;13371;52.080;5.624;2024-02-23T11:00:25;8.00;99.90
25450;DHT22;13371;52.080;5.624;2024-02-23T11:02:52;8.10;99.90
25450;DHT22;13371;52.080;5.624;2024-02-23T11:05:18;8.00;99.90
25450;DHT22;13371;52.080;5.624;2024-02-23T11:07:46;7.80;99.90
25450;DHT22;13371;52.080;5.624;2024-02-23T11:10:15;7.90;99.90
25450;DHT22;13371;52.080;5.624;2024-02-23T11:12:41;8.00;99.90
25450;DHT22;13371;52.080;5.624;2024-02-23T11:15:06;8.10;99.90
25450;DHT22;13371;52.080;5.624;2024-02-23T11:17:36;8.40;99.90
25450;DHT22;13371;52.080;5.624;2024-02-23T11:20:04;8.30;99.90
25450;DHT22;13371;52.080;5.624;2024-02-23T11:22:34;8.40;99.90
25450;DHT22;13371;52.080;5.624;2024-02-23T11:25:07;8.30;99.90
25450;DHT22;13371;52.080;5.624;2024-02-23T11:27:37;8.30;99.90
25450;DHT22;13371;52.080;5.624;2024-02-23T11:30:05;8.40;99.90
25450;DHT22;13371;52.080;5.624;2024-02-23T11:32:39;8.40;99.90
25450;DHT22;13371;52.080;5.624;2024-02-23T11:35:06;8.40;99.90
25450;DHT22;13371;52.080;5.624;2024-02-23T11:37:32;8.50;99.90
25450;DHT22;13371;52.080;5.624;2024-02-23T11:40:00;8.60;99.90
25450;DHT22;13371;52.080;5.624;2024-02-23T11:42:27;8.60;99.90
25450;DHT22;13371;52.080;5.624;2024-02-23T11:44:53;8.70;99.90
25450;DHT22;13371;52.080;5.624;2024-02-23T11:47:24;8.80;99.90
25450;DHT22;13371;52.080;5.624;2024-02-23T11:49:50;9.00;99.90
25450;DHT22;13371;52.080;5.624;2024-02-23T11:52:15;8.90;99.90
25450;DHT22;13371;52.080;5.624;2024-02-23T11:54:42;8.90;99.90
25450;DHT22;13371;52.080;5.624;2024-02-23T11:57:08;9.00;99.90
25450;DHT22;13371;52.080;5.624;2024-02-23T11:59:33;9.10;99.90
25450;DHT22;13371;52.080;5.624;2024-02-23T12:01:59;8.90;99.90
25450;DHT22;13371;52.080;5.624;2024-02-23T12:04:27;9.00;99.90
25450;DHT22;13371;52.080;5.624;2024-02-23T12:06:54;9.00;99.90
25450;DHT22;13371;52.080;5.624;2024-02-23T12:09:20;9.10;99.90
25450;DHT22;13371;52.080;5.624;2024-02-23T12:11:45;9.10;99.90
25450;DHT22;13371;52.080;5.624;2024-02-23T12:14:11;9.20;99.90
25450;DHT22;13371;52.080;5.624;2024-02-23T12:16:37;9.20;99.90
25450;DHT22;13371;52.080;5.624;2024-02-23T12:19:02;9.30;99.90
25450;DHT22;13371;52.080;5.624;2024-02-23T12:21:28;9.20;99.90
25450;DHT22;13371;52.080;5.624;2024-02-23T12:23:54;9.40;99.90
25450;DHT22;13371;52.080;5.624;2024-02-23T12:26:20;9.10;99.90
25450;DHT22;13371;52.080;5.624;2024-02-23T12:28:46;9.20;99.90
25450;DHT22;13371;52.080;5.624;2024-02-23T12:31:12;9.20;99.90
25450;DHT22;13371;52.080;5.624;2024-02-23T12:33:38;9.30;99.90
25450;DHT22;13371;52.080;5.624;2024-02-23T12:36:08;9.50;99.90
25450;DHT22;13371;52.080;5.624;2024-02-23T12:38:34;9.70;99.90
25450;DHT22;13371;52.080;5.624;2024-02-23T12:41:01;9.60;99.90
25450;DHT22;13371;52.080;5.624;2024-02-23T12:43:28;9.60;99.90
25450;DHT22;13371;52.080;5.624;2024-02-23T12:45:54;9.60;99.90
25450;DHT22;13371;52.080;5.624;2024-02-23T12:48:20;9.50;99.90
25450;DHT22;13371;52.080;5.624;2024-02-23T12:50:47;9.40;99.90
25450;DHT22;13371;52.080;5.624;2024-02-23T12:53:33;9.50;99.90
25450;DHT22;13371;52.080;5.624;2024-02-23T12:56:01;9.30;99.90
25450;DHT22;13371;52.080;5.624;2024-02-23T12:58:27;9.50;99.90
25450;DHT22;13371;52.080;5.624;2024-02-23T13:00:53;9.70;99.90
25450;DHT22;13371;52.080;5.624;2024-02-23T13:03:19;9.70;99.90
25450;DHT22;13371;52.080;5.624;2024-02-23T13:05:45;9.70;99.90
25450;DHT22;13371;52.080;5.624;2024-02-23T13:08:10;9.80;99.90
25450;DHT22;13371;52.080;5.624;2024-02-23T13:10:36;9.70;99.90
25450;DHT22;13371;52.080;5.624;2024-02-23T13:13:02;9.80;99.90
25450;DHT22;13371;52.080;5.624;2024-02-23T13:15:27;9.90;99.90
25450;DHT22;13371;52.080;5.624;2024-02-23T13:17:53;9.90;99.90
25450;DHT22;13371;52.080;5.624;2024-02-23T13:20:18;9.70;99.90
25450;DHT22;13371;52.080;5.624;2024-02-23T13:22:44;9.60;99.90
25450;DHT22;13371;52.080;5.624;2024-02-23T13:25:09;9.60;99.90
25450;DHT22;13371;52.080;5.624;2024-02-23T13:27:35;9.80;99.90
25450;DHT22;13371;52.080;5.624;2024-02-23T13:30:02;9.80;99.90
25450;DHT22;13371;52.080;5.624;2024-02-23T13:32:28;9.70;99.90
25450;DHT22;13371;52.080;5.624;2024-02-23T13:34:53;9.70;99.90
25450;DHT22;13371;52.080;5.624;2024-02-23T13:37:19;9.60;99.90
25450;DHT22;13371;52.080;5.624;2024-02-23T13:39:45;9.70;99.90
25450;DHT22;13371;52.080;5.624;2024-02-23T13:42:10;9.80;99.90
25450;DHT22;13371;52.080;5.624;2024-02-23T13:44:36;9.80;99.90
25450;DHT22;13371;52.080;5.624;2024-02-23T13:47:02;9.70;99.90
25450;DHT22;13371;52.080;5.624;2024-02-23T13:49:28;9.70;99.90
25450;DHT22;13371;52.080;5.624;2024-02-23T13:51:54;9.80;99.90
25450;DHT22;13371;52.080;5.624;2024-02-23T13:54:20;9.80;99.90
25450;DHT22;13371;52.080;5.624;2024-02-23T13:56:45;10.00;99.90
25450;DHT22;13371;52.080;5.624;2024-02-23T13:59:11;10.10;99.90
25450;DHT22;13371;52.080;5.624;2024-02-23T14:01:36;9.90;99.90
25450;DHT22;13371;52.080;5.624;2024-02-23T14:04:06;10.00;99.90
25450;DHT22;13371;52.080;5.624;2024-02-23T14:06:32;9.90;99.90
25450;DHT22;13371;52.080;5.624;2024-02-23T14:08:57;9.90;99.90
25450;DHT22;13371;52.080;5.624;2024-02-23T14:11:25;9.90;99.90
25450;DHT22;13371;52.080;5.624;2024-02-23T14:13:51;10.00;99.90
25450;DHT22;13371;52.080;5.624;2024-02-23T14:16:17;10.20;99.90
25450;DHT22;13371;52.080;5.624;2024-02-23T14:18:42;10.20;99.90
25450;DHT22;13371;52.080;5.624;2024-02-23T14:21:10;10.20;99.90
25450;DHT22;13371;52.080;5.624;2024-02-23T14:23:36;9.80;99.90
25450;DHT22;13371;52.080;5.624;2024-02-23T14:26:03;9.90;99.90
25450;DHT22;13371;52.080;5.624;2024-02-23T14:28:28;9.80;99.90
25450;DHT22;13371;52.080;5.624;2024-02-23T14:30:54;9.90;99.90
25450;DHT22;13371;52.080;5.624;2024-02-23T14:33:20;10.10;99.90
25450;DHT22;13371;52.080;5.624;2024-02-23T14:35:46;10.30;99.90
25450;DHT22;13371;52.080;5.624;2024-02-23T14:38:12;10.50;99.90
25450;DHT22;13371;52.080;5.624;2024-02-23T14:40:37;10.30;99.90
25450;DHT22;13371;52.080;5.624;2024-02-23T14:43:04;10.30;99.90
25450;DHT22;13371;52.080;5.624;2024-02-23T14:45:30;10.10;99.90
25450;DHT22;13371;52.080;5.624;2024-02-23T14:47:58;10.30;99.90
25450;DHT22;13371;52.080;5.624;2024-02-23T14:50:24;10.10;99.90
25450;DHT22;13371;52.080;5.624;2024-02-23T14:52:50;10.10;99.90
25450;DHT22;13371;52.080;5.624;2024-02-23T14:55:16;10.00;99.90
25450;DHT22;13371;52.080;5.624;2024-02-23T14:57:42;10.20;99.90
25450;DHT22;13371;52.080;5.624;2024-02-23T15:00:11;10.20;99.90
25450;DHT22;13371;52.080;5.624;2024-02-23T15:02:38;10.00;99.90
25450;DHT22;13371;52.080;5.624;2024-02-23T15:05:05;10.20;99.90
25450;DHT22;13371;52.080;5.624;2024-02-23T15:07:34;10.20;99.90
25450;DHT22;13371;52.080;5.624;2024-02-23T15:10:01;10.10;99.90
25450;DHT22;13371;52.080;5.624;2024-02-23T15:12:33;10.00;99.90
25450;DHT22;13371;52.080;5.624;2024-02-23T15:14:58;9.70;99.90
25450;DHT22;13371;52.080;5.624;2024-02-23T15:17:27;10.00;99.90
25450;DHT22;13371;52.080;5.624;2024-02-23T15:19:52;10.00;99.90
25450;DHT22;13371;52.080;5.624;2024-02-23T15:22:18;10.20;99.90
25450;DHT22;13371;52.080;5.624;2024-02-23T15:24:45;10.20;99.90
25450;DHT22;13371;52.080;5.624;2024-02-23T15:27:18;10.00;99.90
25450;DHT22;13371;52.080;5.624;2024-02-23T15:29:45;10.10;99.90
25450;DHT22;13371;52.080;5.624;2024-02-23T15:32:10;9.90;99.90
25450;DHT22;13371;52.080;5.624;2024-02-23T15:34:36;9.90;99.90
25450;DHT22;13371;52.080;5.624;2024-02-23T15:37:02;9.70;99.90
25450;DHT22;13371;52.080;5.624;2024-02-23T15:39:28;9.80;99.90